sensor_id;sensor_type;location;lat;lon;timestamp;P1;durP1;ratioP1;P2;durP2;ratioP2
75537;SDS011;64121;48.666;8.114;2022-10-16T00:01:47;0.70;;;0.45;;
75537;SDS011;64121;48.666;8.114;2022-10-16T00:04:13;2.33;;;0.60;;
75537;SDS011;64121;48.666;8.114;2022-10-16T00:06:38;1.25;;;0.70;;
75537;SDS011;64121;48.666;8.114;2022-10-16T00:09:04;2.55;;;0.70;;
75537;SDS011;64121;48.666;8.114;2022-10-16T00:11:32;2.08;;;0.63;;
75537;SDS011;64121;48.666;8.114;2022-10-16T00:13:59;3.30;;;0.73;;
75537;SDS011;64121;48.666;8.114;2022-10-16T00:16:27;2.17;;;0.70;;
75537;SDS011;64121;48.666;8.114;2022-10-16T00:18:53;2.38;;;0.70;;
75537;SDS011;64121;48.666;8.114;2022-10-16T00:21:20;2.47;;;0.68;;
75537;SDS011;64121;48.666;8.114;2022-10-16T00:23:46;1.52;;;0.70;;
75537;SDS011;64121;48.666;8.114;2022-10-16T00:26:16;2.42;;;0.90;;
75537;SDS011;64121;48.666;8.114;2022-10-16T00:28:41;2.75;;;0.75;;
75537;SDS011;64121;48.666;8.114;2022-10-16T00:31:08;1.15;;;0.60;;
75537;SDS011;64121;48.666;8.114;2022-10-16T00:33:37;1.83;;;0.65;;
75537;SDS011;64121;48.666;8.114;2022-10-16T00:36:03;1.50;;;0.50;;
75537;SDS011;64121;48.666;8.114;2022-10-16T00:38:30;1.20;;;0.60;;
75537;SDS011;64121;48.666;8.114;2022-10-16T00:40:56;1.23;;;0.50;;
75537;SDS011;64121;48.666;8.114;2022-10-16T00:43:38;2.08;;;0.60;;
75537;SDS011;64121;48.666;8.114;2022-10-16T00:46:08;2.22;;;0.55;;
75537;SDS011;64121;48.666;8.114;2022-10-16T00:48:39;0.90;;;0.60;;
75537;SDS011;64121;48.666;8.114;2022-10-16T00:51:06;1.00;;;0.50;;
75537;SDS011;64121;48.666;8.114;2022-10-16T00:53:32;1.40;;;0.70;;
75537;SDS011;64121;48.666;8.114;2022-10-16T00:55:58;1.48;;;0.68;;
75537;SDS011;64121;48.666;8.114;2022-10-16T00:58:23;1.85;;;0.80;;
75537;SDS011;64121;48.666;8.114;2022-10-16T01:00:49;2.20;;;0.90;;
75537;SDS011;64121;48.666;8.114;2022-10-16T01:03:25;3.53;;;0.60;;
75537;SDS011;64121;48.666;8.114;2022-10-16T01:05:57;2.33;;;0.70;;
75537;SDS011;64121;48.666;8.114;2022-10-16T01:08:31;1.98;;;0.60;;
75537;SDS011;64121;48.666;8.114;2022-10-16T01:11:05;1.88;;;0.70;;
75537;SDS011;64121;48.666;8.114;2022-10-16T01:13:38;1.13;;;0.50;;
75537;SDS011;64121;48.666;8.114;2022-10-16T01:16:09;5.20;;;0.60;;
75537;SDS011;64121;48.666;8.114;2022-10-16T01:18:43;0.85;;;0.43;;
75537;SDS011;64121;48.666;8.114;2022-10-16T01:21:13;2.42;;;0.70;;
75537;SDS011;64121;48.666;8.114;2022-10-16T01:23:45;3.10;;;0.90;;
75537;SDS011;64121;48.666;8.114;2022-10-16T01:26:24;1.70;;;0.70;;
75537;SDS011;64121;48.666;8.114;2022-10-16T01:29:03;2.63;;;0.60;;
75537;SDS011;64121;48.666;8.114;2022-10-16T01:31:33;2.65;;;0.80;;
75537;SDS011;64121;48.666;8.114;2022-10-16T01:34:03;3.08;;;0.95;;
75537;SDS011;64121;48.666;8.114;2022-10-16T01:36:35;1.48;;;0.68;;
75537;SDS011;64121;48.666;8.114;2022-10-16T01:39:03;3.40;;;0.80;;
75537;SDS011;64121;48.666;8.114;2022-10-16T01:41:33;2.95;;;0.80;;
75537;SDS011;64121;48.666;8.114;2022-10-16T01:44:04;1.92;;;0.80;;
75537;SDS011;64121;48.666;8.114;2022-10-16T01:46:33;1.48;;;0.80;;
75537;SDS011;64121;48.666;8.114;2022-10-16T01:49:01;3.33;;;0.70;;
75537;SDS011;64121;48.666;8.114;2022-10-16T01:51:28;4.10;;;0.82;;
75537;SDS011;64121;48.666;8.114;2022-10-16T01:53:54;1.35;;;0.80;;
75537;SDS011;64121;48.666;8.114;2022-10-16T01:56:22;2.03;;;0.75;;
75537;SDS011;64121;48.666;8.114;2022-10-16T01:58:51;3.20;;;0.77;;
75537;SDS011;64121;48.666;8.114;2022-10-16T02:01:20;3.58;;;1.00;;
75537;SDS011;64121;48.666;8.114;2022-10-16T02:03:48;1.98;;;0.90;;
75537;SDS011;64121;48.666;8.114;2022-10-16T02:06:16;3.65;;;0.93;;
75537;SDS011;64121;48.666;8.114;2022-10-16T02:08:42;2.72;;;0.98;;
75537;SDS011;64121;48.666;8.114;2022-10-16T02:11:07;2.25;;;0.82;;
75537;SDS011;64121;48.666;8.114;2022-10-16T02:13:35;1.40;;;0.80;;
75537;SDS011;64121;48.666;8.114;2022-10-16T02:16:04;4.93;;;1.00;;
75537;SDS011;64121;48.666;8.114;2022-10-16T02:18:31;2.40;;;0.82;;
75537;SDS011;64121;48.666;8.114;2022-10-16T02:20:57;1.55;;;0.98;;
75537;SDS011;64121;48.666;8.114;2022-10-16T02:23:27;3.35;;;1.10;;
75537;SDS011;64121;48.666;8.114;2022-10-16T02:25:59;5.32;;;1.25;;
75537;SDS011;64121;48.666;8.114;2022-10-16T02:28:31;3.85;;;1.10;;
75537;SDS011;64121;48.666;8.114;2022-10-16T02:31:03;1.85;;;1.00;;
75537;SDS011;64121;48.666;8.114;2022-10-16T02:33:32;2.53;;;1.02;;
75537;SDS011;64121;48.666;8.114;2022-10-16T02:35:59;2.40;;;1.38;;
75537;SDS011;64121;48.666;8.114;2022-10-16T02:38:25;4.63;;;1.83;;
75537;SDS011;64121;48.666;8.114;2022-10-16T02:40:52;2.33;;;1.13;;
75537;SDS011;64121;48.666;8.114;2022-10-16T02:43:17;2.08;;;1.20;;
75537;SDS011;64121;48.666;8.114;2022-10-16T02:45:43;2.92;;;1.10;;
75537;SDS011;64121;48.666;8.114;2022-10-16T02:48:08;1.42;;;0.90;;
75537;SDS011;64121;48.666;8.114;2022-10-16T02:50:35;1.67;;;0.93;;
75537;SDS011;64121;48.666;8.114;2022-10-16T02:53:00;3.70;;;1.17;;
75537;SDS011;64121;48.666;8.114;2022-10-16T02:55:26;3.60;;;1.10;;
75537;SDS011;64121;48.666;8.114;2022-10-16T02:57:51;3.38;;;1.17;;
75537;SDS011;64121;48.666;8.114;2022-10-16T03:00:17;2.50;;;0.88;;
75537;SDS011;64121;48.666;8.114;2022-10-16T03:02:42;1.83;;;0.98;;
75537;SDS011;64121;48.666;8.114;2022-10-16T03:05:08;3.65;;;0.93;;
75537;SDS011;64121;48.666;8.114;2022-10-16T03:07:36;3.28;;;1.00;;
75537;SDS011;64121;48.666;8.114;2022-10-16T03:10:02;1.90;;;0.88;;
75537;SDS011;64121;48.666;8.114;2022-10-16T03:12:27;2.33;;;0.95;;
75537;SDS011;64121;48.666;8.114;2022-10-16T03:14:53;3.55;;;0.90;;
75537;SDS011;64121;48.666;8.114;2022-10-16T03:17:18;3.53;;;1.00;;
75537;SDS011;64121;48.666;8.114;2022-10-16T03:19:44;2.83;;;0.90;;
75537;SDS011;64121;48.666;8.114;2022-10-16T03:22:09;3.05;;;1.25;;
75537;SDS011;64121;48.666;8.114;2022-10-16T03:24:36;3.55;;;1.00;;
75537;SDS011;64121;48.666;8.114;2022-10-16T03:27:02;2.20;;;1.00;;
75537;SDS011;64121;48.666;8.114;2022-10-16T03:29:27;3.17;;;1.20;;
75537;SDS011;64121;48.666;8.114;2022-10-16T03:31:52;3.22;;;1.50;;
75537;SDS011;64121;48.666;8.114;2022-10-16T03:34:18;2.83;;;1.58;;
75537;SDS011;64121;48.666;8.114;2022-10-16T03:36:43;1.83;;;0.95;;
75537;SDS011;64121;48.666;8.114;2022-10-16T03:39:09;2.33;;;0.98;;
75537;SDS011;64121;48.666;8.114;2022-10-16T03:41:35;4.15;;;1.25;;
75537;SDS011;64121;48.666;8.114;2022-10-16T03:44:01;2.47;;;1.00;;
75537;SDS011;64121;48.666;8.114;2022-10-16T03:46:26;1.55;;;1.10;;
75537;SDS011;64121;48.666;8.114;2022-10-16T03:48:51;3.42;;;1.48;;
75537;SDS011;64121;48.666;8.114;2022-10-16T03:51:17;4.00;;;1.50;;
75537;SDS011;64121;48.666;8.114;2022-10-16T03:53:42;3.75;;;1.20;;
75537;SDS011;64121;48.666;8.114;2022-10-16T03:56:07;3.58;;;1.27;;
75537;SDS011;64121;48.666;8.114;2022-10-16T03:58:34;2.10;;;1.20;;
75537;SDS011;64121;48.666;8.114;2022-10-16T04:00:59;2.35;;;1.20;;
75537;SDS011;64121;48.666;8.114;2022-10-16T04:03:25;2.67;;;1.20;;
75537;SDS011;64121;48.666;8.114;2022-10-16T04:05:50;4.60;;;1.25;;
75537;SDS011;64121;48.666;8.114;2022-10-16T04:08:15;2.50;;;1.10;;
75537;SDS011;64121;48.666;8.114;2022-10-16T04:10:41;2.17;;;1.13;;
75537;SDS011;64121;48.666;8.114;2022-10-16T04:13:07;3.22;;;1.33;;
75537;SDS011;64121;48.666;8.114;2022-10-16T04:15:34;2.67;;;0.80;;
75537;SDS011;64121;48.666;8.114;2022-10-16T04:17:59;2.60;;;0.95;;
75537;SDS011;64121;48.666;8.114;2022-10-16T04:20:25;1.55;;;1.10;;
75537;SDS011;64121;48.666;8.114;2022-10-16T04:22:50;1.70;;;1.00;;
75537;SDS011;64121;48.666;8.114;2022-10-16T04:25:15;6.78;;;1.05;;
75537;SDS011;64121;48.666;8.114;2022-10-16T04:27:41;2.60;;;1.10;;
75537;SDS011;64121;48.666;8.114;2022-10-16T04:30:07;4.45;;;0.90;;
75537;SDS011;64121;48.666;8.114;2022-10-16T04:32:34;3.28;;;0.98;;
75537;SDS011;64121;48.666;8.114;2022-10-16T04:34:59;2.72;;;1.00;;
75537;SDS011;64121;48.666;8.114;2022-10-16T04:37:25;4.03;;;1.10;;
75537;SDS011;64121;48.666;8.114;2022-10-16T04:39:50;2.28;;;1.10;;
75537;SDS011;64121;48.666;8.114;2022-10-16T04:42:16;3.28;;;1.23;;
75537;SDS011;64121;48.666;8.114;2022-10-16T04:44:41;2.53;;;1.08;;
75537;SDS011;64121;48.666;8.114;2022-10-16T04:47:07;4.50;;;1.20;;
75537;SDS011;64121;48.666;8.114;2022-10-16T04:49:33;2.70;;;1.20;;
75537;SDS011;64121;48.666;8.114;2022-10-16T04:51:59;2.17;;;0.95;;
75537;SDS011;64121;48.666;8.114;2022-10-16T04:54:24;3.20;;;1.40;;
75537;SDS011;64121;48.666;8.114;2022-10-16T04:56:49;3.92;;;1.10;;
75537;SDS011;64121;48.666;8.114;2022-10-16T04:59:15;3.58;;;1.30;;
75537;SDS011;64121;48.666;8.114;2022-10-16T05:01:41;3.85;;;1.20;;
75537;SDS011;64121;48.666;8.114;2022-10-16T05:04:06;2.08;;;1.00;;
75537;SDS011;64121;48.666;8.114;2022-10-16T05:06:33;4.47;;;1.00;;
75537;SDS011;64121;48.666;8.114;2022-10-16T05:08:58;2.08;;;0.88;;
75537;SDS011;64121;48.666;8.114;2022-10-16T05:11:24;3.10;;;1.10;;
75537;SDS011;64121;48.666;8.114;2022-10-16T05:13:49;5.68;;;1.20;;
75537;SDS011;64121;48.666;8.114;2022-10-16T05:16:14;1.88;;;1.15;;
75537;SDS011;64121;48.666;8.114;2022-10-16T05:18:40;2.47;;;1.00;;
75537;SDS011;64121;48.666;8.114;2022-10-16T05:21:05;4.28;;;1.20;;
75537;SDS011;64121;48.666;8.114;2022-10-16T05:23:32;2.17;;;1.10;;
75537;SDS011;64121;48.666;8.114;2022-10-16T05:25:58;3.03;;;1.20;;
75537;SDS011;64121;48.666;8.114;2022-10-16T05:28:24;2.70;;;1.05;;
75537;SDS011;64121;48.666;8.114;2022-10-16T05:30:50;3.35;;;1.15;;
75537;SDS011;64121;48.666;8.114;2022-10-16T05:33:15;2.53;;;1.25;;
75537;SDS011;64121;48.666;8.114;2022-10-16T05:35:40;2.30;;;1.17;;
75537;SDS011;64121;48.666;8.114;2022-10-16T05:38:06;4.38;;;1.17;;
75537;SDS011;64121;48.666;8.114;2022-10-16T05:40:33;3.72;;;1.40;;
75537;SDS011;64121;48.666;8.114;2022-10-16T05:42:58;2.47;;;1.20;;
75537;SDS011;64121;48.666;8.114;2022-10-16T05:45:23;2.10;;;0.95;;
75537;SDS011;64121;48.666;8.114;2022-10-16T05:47:49;4.63;;;1.10;;
75537;SDS011;64121;48.666;8.114;2022-10-16T05:50:14;3.00;;;1.30;;
75537;SDS011;64121;48.666;8.114;2022-10-16T05:52:39;4.32;;;1.73;;
75537;SDS011;64121;48.666;8.114;2022-10-16T05:55:05;2.88;;;1.60;;
75537;SDS011;64121;48.666;8.114;2022-10-16T05:57:32;3.80;;;1.50;;
75537;SDS011;64121;48.666;8.114;2022-10-16T05:59:57;2.42;;;1.40;;
75537;SDS011;64121;48.666;8.114;2022-10-16T06:02:23;2.05;;;1.38;;
75537;SDS011;64121;48.666;8.114;2022-10-16T06:04:48;2.70;;;1.50;;
75537;SDS011;64121;48.666;8.114;2022-10-16T06:07:13;4.18;;;1.45;;
75537;SDS011;64121;48.666;8.114;2022-10-16T06:09:39;2.35;;;1.10;;
75537;SDS011;64121;48.666;8.114;2022-10-16T06:12:04;2.92;;;1.90;;
75537;SDS011;64121;48.666;8.114;2022-10-16T06:14:31;2.42;;;1.50;;
75537;SDS011;64121;48.666;8.114;2022-10-16T06:16:57;5.38;;;1.48;;
75537;SDS011;64121;48.666;8.114;2022-10-16T06:19:22;2.20;;;1.40;;
75537;SDS011;64121;48.666;8.114;2022-10-16T06:21:48;3.00;;;1.23;;
75537;SDS011;64121;48.666;8.114;2022-10-16T06:24:13;3.35;;;1.42;;
75537;SDS011;64121;48.666;8.114;2022-10-16T06:26:38;2.10;;;1.08;;
75537;SDS011;64121;48.666;8.114;2022-10-16T06:29:04;2.33;;;1.50;;
75537;SDS011;64121;48.666;8.114;2022-10-16T06:31:31;5.25;;;1.38;;
75537;SDS011;64121;48.666;8.114;2022-10-16T06:33:56;4.32;;;1.50;;
75537;SDS011;64121;48.666;8.114;2022-10-16T06:36:22;2.92;;;1.40;;
75537;SDS011;64121;48.666;8.114;2022-10-16T06:38:49;3.05;;;1.30;;
75537;SDS011;64121;48.666;8.114;2022-10-16T06:41:15;2.10;;;1.30;;
75537;SDS011;64121;48.666;8.114;2022-10-16T06:43:41;3.63;;;1.38;;
75537;SDS011;64121;48.666;8.114;2022-10-16T06:46:08;3.28;;;1.15;;
75537;SDS011;64121;48.666;8.114;2022-10-16T06:48:36;1.60;;;0.95;;
75537;SDS011;64121;48.666;8.114;2022-10-16T06:51:03;2.63;;;1.30;;
75537;SDS011;64121;48.666;8.114;2022-10-16T06:53:30;2.67;;;1.25;;
75537;SDS011;64121;48.666;8.114;2022-10-16T06:55:57;4.22;;;1.42;;
75537;SDS011;64121;48.666;8.114;2022-10-16T06:58:22;5.35;;;1.92;;
75537;SDS011;64121;48.666;8.114;2022-10-16T07:00:48;2.75;;;1.25;;
75537;SDS011;64121;48.666;8.114;2022-10-16T07:03:13;2.40;;;1.40;;
75537;SDS011;64121;48.666;8.114;2022-10-16T07:05:40;3.53;;;1.45;;
75537;SDS011;64121;48.666;8.114;2022-10-16T07:08:06;3.33;;;1.30;;
75537;SDS011;64121;48.666;8.114;2022-10-16T07:10:32;3.53;;;1.25;;
75537;SDS011;64121;48.666;8.114;2022-10-16T07:12:57;3.88;;;1.38;;
75537;SDS011;64121;48.666;8.114;2022-10-16T07:15:24;4.90;;;1.52;;
75537;SDS011;64121;48.666;8.114;2022-10-16T07:17:49;3.78;;;1.42;;
75537;SDS011;64121;48.666;8.114;2022-10-16T07:20:14;2.65;;;1.33;;
75537;SDS011;64121;48.666;8.114;2022-10-16T07:22:41;4.75;;;2.22;;
75537;SDS011;64121;48.666;8.114;2022-10-16T07:25:07;4.38;;;1.45;;
75537;SDS011;64121;48.666;8.114;2022-10-16T07:27:33;5.38;;;2.70;;
75537;SDS011;64121;48.666;8.114;2022-10-16T07:29:58;6.18;;;2.50;;
75537;SDS011;64121;48.666;8.114;2022-10-16T07:32:23;3.38;;;2.03;;
75537;SDS011;64121;48.666;8.114;2022-10-16T07:34:49;5.38;;;2.25;;
75537;SDS011;64121;48.666;8.114;2022-10-16T07:37:14;3.25;;;2.20;;
75537;SDS011;64121;48.666;8.114;2022-10-16T07:39:41;6.53;;;1.83;;
75537;SDS011;64121;48.666;8.114;2022-10-16T07:42:06;3.45;;;1.80;;
75537;SDS011;64121;48.666;8.114;2022-10-16T07:44:31;6.07;;;1.90;;
75537;SDS011;64121;48.666;8.114;2022-10-16T07:46:57;4.13;;;2.17;;
75537;SDS011;64121;48.666;8.114;2022-10-16T07:49:22;2.65;;;1.63;;
75537;SDS011;64121;48.666;8.114;2022-10-16T07:51:47;4.05;;;1.77;;
75537;SDS011;64121;48.666;8.114;2022-10-16T07:54:13;4.85;;;1.70;;
75537;SDS011;64121;48.666;8.114;2022-10-16T07:56:39;8.98;;;2.05;;
75537;SDS011;64121;48.666;8.114;2022-10-16T07:59:05;4.00;;;1.77;;
75537;SDS011;64121;48.666;8.114;2022-10-16T08:01:30;3.63;;;1.70;;
75537;SDS011;64121;48.666;8.114;2022-10-16T08:03:55;4.05;;;1.92;;
75537;SDS011;64121;48.666;8.114;2022-10-16T08:06:21;3.30;;;2.20;;
75537;SDS011;64121;48.666;8.114;2022-10-16T08:08:47;3.05;;;1.98;;
75537;SDS011;64121;48.666;8.114;2022-10-16T08:11:13;6.72;;;1.90;;
75537;SDS011;64121;48.666;8.114;2022-10-16T08:13:40;3.15;;;1.40;;
75537;SDS011;64121;48.666;8.114;2022-10-16T08:16:05;1.90;;;1.38;;
75537;SDS011;64121;48.666;8.114;2022-10-16T08:18:31;4.45;;;1.67;;
75537;SDS011;64121;48.666;8.114;2022-10-16T08:20:57;6.40;;;2.10;;
75537;SDS011;64121;48.666;8.114;2022-10-16T08:23:24;3.70;;;1.50;;
75537;SDS011;64121;48.666;8.114;2022-10-16T08:25:49;2.80;;;1.98;;
75537;SDS011;64121;48.666;8.114;2022-10-16T08:28:15;3.65;;;1.75;;
75537;SDS011;64121;48.666;8.114;2022-10-16T08:30:41;3.75;;;1.95;;
75537;SDS011;64121;48.666;8.114;2022-10-16T08:33:07;3.95;;;1.90;;
75537;SDS011;64121;48.666;8.114;2022-10-16T08:35:32;2.65;;;1.52;;
75537;SDS011;64121;48.666;8.114;2022-10-16T08:37:57;4.68;;;1.48;;
75537;SDS011;64121;48.666;8.114;2022-10-16T08:40:24;2.70;;;1.73;;
75537;SDS011;64121;48.666;8.114;2022-10-16T08:42:55;3.60;;;2.17;;
75537;SDS011;64121;48.666;8.114;2022-10-16T08:45:39;3.50;;;1.70;;
75537;SDS011;64121;48.666;8.114;2022-10-16T08:48:19;4.05;;;2.00;;
75537;SDS011;64121;48.666;8.114;2022-10-16T08:50:47;3.58;;;1.90;;
75537;SDS011;64121;48.666;8.114;2022-10-16T08:53:18;4.40;;;1.98;;
75537;SDS011;64121;48.666;8.114;2022-10-16T08:55:49;2.95;;;1.73;;
75537;SDS011;64121;48.666;8.114;2022-10-16T08:58:16;4.85;;;2.08;;
75537;SDS011;64121;48.666;8.114;2022-10-16T09:00:44;3.08;;;1.88;;
75537;SDS011;64121;48.666;8.114;2022-10-16T09:03:16;4.70;;;2.08;;
75537;SDS011;64121;48.666;8.114;2022-10-16T09:05:52;6.07;;;2.10;;
75537;SDS011;64121;48.666;8.114;2022-10-16T09:08:28;5.93;;;1.98;;
75537;SDS011;64121;48.666;8.114;2022-10-16T09:11:02;4.00;;;1.90;;
75537;SDS011;64121;48.666;8.114;2022-10-16T09:13:40;6.25;;;1.73;;
75537;SDS011;64121;48.666;8.114;2022-10-16T09:16:14;5.03;;;1.73;;
75537;SDS011;64121;48.666;8.114;2022-10-16T09:18:47;4.95;;;2.55;;
75537;SDS011;64121;48.666;8.114;2022-10-16T09:21:19;4.65;;;3.08;;
75537;SDS011;64121;48.666;8.114;2022-10-16T09:23:48;8.27;;;3.60;;
75537;SDS011;64121;48.666;8.114;2022-10-16T09:26:14;8.95;;;2.97;;
75537;SDS011;64121;48.666;8.114;2022-10-16T09:28:41;5.22;;;2.45;;
75537;SDS011;64121;48.666;8.114;2022-10-16T09:31:08;4.97;;;2.22;;
75537;SDS011;64121;48.666;8.114;2022-10-16T09:33:40;5.32;;;1.85;;
75537;SDS011;64121;48.666;8.114;2022-10-16T09:36:08;5.57;;;1.95;;
75537;SDS011;64121;48.666;8.114;2022-10-16T09:38:35;5.35;;;1.65;;
75537;SDS011;64121;48.666;8.114;2022-10-16T09:41:02;3.10;;;1.60;;
75537;SDS011;64121;48.666;8.114;2022-10-16T09:43:36;3.13;;;1.38;;
75537;SDS011;64121;48.666;8.114;2022-10-16T09:46:06;2.75;;;1.48;;
75537;SDS011;64121;48.666;8.114;2022-10-16T09:48:35;5.38;;;1.73;;
75537;SDS011;64121;48.666;8.114;2022-10-16T09:51:02;3.47;;;1.65;;
75537;SDS011;64121;48.666;8.114;2022-10-16T09:53:39;3.40;;;1.52;;
75537;SDS011;64121;48.666;8.114;2022-10-16T09:56:06;2.50;;;1.30;;
75537;SDS011;64121;48.666;8.114;2022-10-16T09:58:31;3.63;;;1.50;;
75537;SDS011;64121;48.666;8.114;2022-10-16T10:00:57;4.70;;;1.58;;
75537;SDS011;64121;48.666;8.114;2022-10-16T10:03:30;3.05;;;1.50;;
75537;SDS011;64121;48.666;8.114;2022-10-16T10:06:00;7.15;;;1.85;;
75537;SDS011;64121;48.666;8.114;2022-10-16T10:08:32;6.03;;;1.58;;
75537;SDS011;64121;48.666;8.114;2022-10-16T10:10:58;5.38;;;1.95;;
75537;SDS011;64121;48.666;8.114;2022-10-16T10:13:24;3.38;;;1.60;;
75537;SDS011;64121;48.666;8.114;2022-10-16T10:15:50;4.97;;;1.98;;
75537;SDS011;64121;48.666;8.114;2022-10-16T10:18:16;3.92;;;2.17;;
75537;SDS011;64121;48.666;8.114;2022-10-16T10:20:43;3.50;;;1.45;;
75537;SDS011;64121;48.666;8.114;2022-10-16T10:23:18;2.75;;;1.58;;
75537;SDS011;64121;48.666;8.114;2022-10-16T10:25:49;4.20;;;1.58;;
75537;SDS011;64121;48.666;8.114;2022-10-16T10:28:30;4.30;;;1.48;;
75537;SDS011;64121;48.666;8.114;2022-10-16T10:31:10;5.75;;;1.65;;
75537;SDS011;64121;48.666;8.114;2022-10-16T10:33:43;3.63;;;1.40;;
75537;SDS011;64121;48.666;8.114;2022-10-16T10:36:15;3.58;;;1.77;;
75537;SDS011;64121;48.666;8.114;2022-10-16T10:38:49;3.90;;;1.67;;
75537;SDS011;64121;48.666;8.114;2022-10-16T10:41:24;3.45;;;1.55;;
75537;SDS011;64121;48.666;8.114;2022-10-16T10:44:07;3.72;;;1.73;;
75537;SDS011;64121;48.666;8.114;2022-10-16T10:46:41;3.45;;;1.60;;
75537;SDS011;64121;48.666;8.114;2022-10-16T10:49:17;4.10;;;1.50;;
75537;SDS011;64121;48.666;8.114;2022-10-16T10:51:55;3.33;;;1.38;;
75537;SDS011;64121;48.666;8.114;2022-10-16T10:54:32;2.53;;;1.20;;
75537;SDS011;64121;48.666;8.114;2022-10-16T10:57:09;4.72;;;1.55;;
75537;SDS011;64121;48.666;8.114;2022-10-16T10:59:45;2.50;;;1.35;;
75537;SDS011;64121;48.666;8.114;2022-10-16T11:02:21;3.10;;;1.35;;
75537;SDS011;64121;48.666;8.114;2022-10-16T11:04:58;3.22;;;1.38;;
75537;SDS011;64121;48.666;8.114;2022-10-16T11:07:47;5.25;;;1.30;;
75537;SDS011;64121;48.666;8.114;2022-10-16T11:10:19;2.67;;;1.50;;
75537;SDS011;64121;48.666;8.114;2022-10-16T11:12:47;6.13;;;1.90;;
75537;SDS011;64121;48.666;8.114;2022-10-16T11:15:19;5.25;;;1.55;;
75537;SDS011;64121;48.666;8.114;2022-10-16T11:17:49;3.75;;;1.50;;
75537;SDS011;64121;48.666;8.114;2022-10-16T11:20:20;2.83;;;1.50;;
75537;SDS011;64121;48.666;8.114;2022-10-16T11:22:50;4.18;;;2.05;;
75537;SDS011;64121;48.666;8.114;2022-10-16T11:25:20;4.93;;;1.90;;
75537;SDS011;64121;48.666;8.114;2022-10-16T11:27:49;3.03;;;1.67;;
75537;SDS011;64121;48.666;8.114;2022-10-16T11:30:18;3.55;;;1.65;;
75537;SDS011;64121;48.666;8.114;2022-10-16T11:32:50;3.10;;;1.67;;
75537;SDS011;64121;48.666;8.114;2022-10-16T11:35:22;2.47;;;1.50;;
75537;SDS011;64121;48.666;8.114;2022-10-16T11:37:53;2.33;;;1.60;;
75537;SDS011;64121;48.666;8.114;2022-10-16T11:40:24;3.08;;;1.80;;
75537;SDS011;64121;48.666;8.114;2022-10-16T11:42:54;3.63;;;1.60;;
75537;SDS011;64121;48.666;8.114;2022-10-16T11:45:29;4.20;;;1.55;;
75537;SDS011;64121;48.666;8.114;2022-10-16T11:48:00;4.20;;;2.05;;
75537;SDS011;64121;48.666;8.114;2022-10-16T11:50:33;5.38;;;1.70;;
75537;SDS011;64121;48.666;8.114;2022-10-16T11:53:03;3.55;;;1.50;;
75537;SDS011;64121;48.666;8.114;2022-10-16T11:55:36;5.72;;;1.70;;
75537;SDS011;64121;48.666;8.114;2022-10-16T11:58:04;3.38;;;1.77;;
75537;SDS011;64121;48.666;8.114;2022-10-16T12:00:37;5.20;;;1.75;;
75537;SDS011;64121;48.666;8.114;2022-10-16T12:03:11;3.33;;;2.00;;
75537;SDS011;64121;48.666;8.114;2022-10-16T12:05:52;4.63;;;1.50;;
75537;SDS011;64121;48.666;8.114;2022-10-16T12:08:26;2.53;;;1.60;;
75537;SDS011;64121;48.666;8.114;2022-10-16T12:10:53;5.70;;;2.00;;
75537;SDS011;64121;48.666;8.114;2022-10-16T12:13:28;2.78;;;1.60;;
75537;SDS011;64121;48.666;8.114;2022-10-16T12:16:04;3.17;;;1.65;;
75537;SDS011;64121;48.666;8.114;2022-10-16T12:18:31;3.00;;;1.85;;
75537;SDS011;64121;48.666;8.114;2022-10-16T12:20:57;3.38;;;1.98;;
75537;SDS011;64121;48.666;8.114;2022-10-16T12:23:24;7.53;;;1.90;;
75537;SDS011;64121;48.666;8.114;2022-10-16T12:25:53;4.57;;;1.73;;
75537;SDS011;64121;48.666;8.114;2022-10-16T12:28:20;4.30;;;2.30;;
75537;SDS011;64121;48.666;8.114;2022-10-16T12:30:52;4.15;;;2.17;;
75537;SDS011;64121;48.666;8.114;2022-10-16T12:33:21;3.80;;;1.60;;
75537;SDS011;64121;48.666;8.114;2022-10-16T12:35:48;3.25;;;1.60;;
75537;SDS011;64121;48.666;8.114;2022-10-16T12:38:15;3.63;;;2.42;;
75537;SDS011;64121;48.666;8.114;2022-10-16T12:40:43;3.20;;;2.00;;
75537;SDS011;64121;48.666;8.114;2022-10-16T12:43:13;6.40;;;2.28;;
75537;SDS011;64121;48.666;8.114;2022-10-16T12:45:58;3.60;;;1.88;;
75537;SDS011;64121;48.666;8.114;2022-10-16T12:48:26;3.03;;;1.85;;
75537;SDS011;64121;48.666;8.114;2022-10-16T12:50:51;4.20;;;1.88;;
75537;SDS011;64121;48.666;8.114;2022-10-16T12:53:18;2.83;;;1.98;;
75537;SDS011;64121;48.666;8.114;2022-10-16T12:55:48;3.97;;;2.00;;
75537;SDS011;64121;48.666;8.114;2022-10-16T12:58:32;6.87;;;2.00;;
75537;SDS011;64121;48.666;8.114;2022-10-16T13:01:19;3.67;;;1.95;;
75537;SDS011;64121;48.666;8.114;2022-10-16T13:04:12;3.00;;;1.65;;
75537;SDS011;64121;48.666;8.114;2022-10-16T13:06:50;2.97;;;1.90;;
75537;SDS011;64121;48.666;8.114;2022-10-16T13:09:31;3.40;;;1.60;;
75537;SDS011;64121;48.666;8.114;2022-10-16T13:12:16;4.55;;;1.88;;
75537;SDS011;64121;48.666;8.114;2022-10-16T13:15:06;3.80;;;1.70;;
75537;SDS011;64121;48.666;8.114;2022-10-16T13:17:45;3.95;;;1.88;;
75537;SDS011;64121;48.666;8.114;2022-10-16T13:20:21;3.72;;;1.80;;
75537;SDS011;64121;48.666;8.114;2022-10-16T13:22:54;3.25;;;1.67;;
75537;SDS011;64121;48.666;8.114;2022-10-16T13:25:29;2.22;;;1.65;;
75537;SDS011;64121;48.666;8.114;2022-10-16T13:28:05;3.03;;;1.83;;
75537;SDS011;64121;48.666;8.114;2022-10-16T13:30:34;3.10;;;1.98;;
75537;SDS011;64121;48.666;8.114;2022-10-16T13:33:04;3.28;;;1.70;;
75537;SDS011;64121;48.666;8.114;2022-10-16T13:35:46;2.80;;;1.85;;
75537;SDS011;64121;48.666;8.114;2022-10-16T13:38:13;3.75;;;1.90;;
75537;SDS011;64121;48.666;8.114;2022-10-16T13:40:53;3.28;;;2.03;;
75537;SDS011;64121;48.666;8.114;2022-10-16T13:43:21;2.20;;;1.58;;
75537;SDS011;64121;48.666;8.114;2022-10-16T13:45:53;3.70;;;1.90;;
75537;SDS011;64121;48.666;8.114;2022-10-16T13:48:19;5.63;;;1.70;;
75537;SDS011;64121;48.666;8.114;2022-10-16T13:50:46;3.33;;;2.03;;
75537;SDS011;64121;48.666;8.114;2022-10-16T13:53:23;3.70;;;1.60;;
75537;SDS011;64121;48.666;8.114;2022-10-16T13:55:48;4.30;;;2.13;;
75537;SDS011;64121;48.666;8.114;2022-10-16T13:58:14;3.47;;;2.35;;
75537;SDS011;64121;48.666;8.114;2022-10-16T14:00:40;5.03;;;2.40;;
75537;SDS011;64121;48.666;8.114;2022-10-16T14:03:17;4.43;;;2.40;;
75537;SDS011;64121;48.666;8.114;2022-10-16T14:05:43;5.22;;;2.60;;
75537;SDS011;64121;48.666;8.114;2022-10-16T14:08:12;3.42;;;2.20;;
75537;SDS011;64121;48.666;8.114;2022-10-16T14:10:38;4.30;;;2.42;;
75537;SDS011;64121;48.666;8.114;2022-10-16T14:13:05;3.90;;;2.47;;
75537;SDS011;64121;48.666;8.114;2022-10-16T14:15:32;3.30;;;1.90;;
75537;SDS011;64121;48.666;8.114;2022-10-16T14:18:00;5.55;;;2.22;;
75537;SDS011;64121;48.666;8.114;2022-10-16T14:20:28;4.45;;;2.90;;
75537;SDS011;64121;48.666;8.114;2022-10-16T14:23:02;3.53;;;1.70;;
75537;SDS011;64121;48.666;8.114;2022-10-16T14:25:29;3.38;;;1.95;;
75537;SDS011;64121;48.666;8.114;2022-10-16T14:27:57;3.35;;;2.15;;
75537;SDS011;64121;48.666;8.114;2022-10-16T14:30:24;3.65;;;1.88;;
75537;SDS011;64121;48.666;8.114;2022-10-16T14:32:54;3.15;;;1.80;;
75537;SDS011;64121;48.666;8.114;2022-10-16T14:35:25;2.92;;;2.30;;
75537;SDS011;64121;48.666;8.114;2022-10-16T14:37:52;6.30;;;2.10;;
75537;SDS011;64121;48.666;8.114;2022-10-16T14:40:20;5.07;;;2.15;;
75537;SDS011;64121;48.666;8.114;2022-10-16T14:42:48;2.53;;;1.88;;
75537;SDS011;64121;48.666;8.114;2022-10-16T14:45:15;4.25;;;2.30;;
75537;SDS011;64121;48.666;8.114;2022-10-16T14:47:47;3.67;;;2.55;;
75537;SDS011;64121;48.666;8.114;2022-10-16T14:50:14;4.47;;;2.20;;
75537;SDS011;64121;48.666;8.114;2022-10-16T14:52:39;3.38;;;2.10;;
75537;SDS011;64121;48.666;8.114;2022-10-16T14:55:05;2.90;;;1.80;;
75537;SDS011;64121;48.666;8.114;2022-10-16T14:57:33;2.80;;;1.90;;